Аэропорт: Орск. Орск

ICAO: UWOR

METAR:
2019/03/26 13:00
UWOR 261300Z 30006MPS CAVOK 05/M03 Q1020 R25/CLRD65 NOSIG RMK QFE741/0989
METAR:
2015/12/20 18:00
TAF UWOR 201700Z 2018/2103 15010G15MPS 2000 SN BLSN OVC007 
      TEMPO 2018/2024 19015MPS 1200 SN BLSN OVC005